METAR Data
IDs: Format: Raw Decoded Include TAF

Data at: 2123 UTC 18 Sep 2018

KSTJ 182115Z 22011KT 10SM FEW120 36/20 A2984 RMK AO2 WSHFT 2055 T03560200
KSTJ 182053Z 19009G18KT 10SM SCT120 36/20 A2984 RMK AO2 SLP095 T03560200 56022
KSTJ 181953Z 22012KT 10SM FEW070 FEW110 34/20 A2986 RMK AO2 SLP100 T03390200
KSTJ 181853Z 22011KT 10SM FEW065 BKN110 36/20 A2989 RMK AO2 SLP111 T03560200
KSTJ 181753Z 22012G17KT 10SM FEW110 35/21 A2991 RMK AO2 SLP116 T03500206 10350 20211 58010
KSTJ 181653Z 22009KT 10SM CLR 33/22 A2993 RMK AO2 SLP124 T03280222
KSTJ 181553Z 20011G17KT 10SM CLR 30/22 A2993 RMK AO2 SLP126 T03000222
KSTJ 181453Z 20007KT 10SM CLR 28/22 A2994 RMK AO2 SLP128 T02830222 58003
KSTJ 181353Z 19004KT 10SM CLR 26/22 A2995 RMK AO2 SLP133 T02560222
KSTJ 181253Z 00000KT 10SM CLR 23/22 A2995 RMK AO2 SLP135 T02280217
KSTJ 181153Z 16003KT 10SM CLR 21/21 A2995 RMK AO2 SLP132 T02110211 10233 20200 52002
KSTJ 181053Z AUTO 14003KT 9SM CLR 21/21 A2995 RMK AO2 SLP131 T02110206
KSTJ 180953Z AUTO 00000KT 9SM CLR 21/21 A2994 RMK AO2 SLP129 T02110206
KSTJ 180853Z AUTO 00000KT 9SM CLR 21/21 A2994 RMK AO2 SLP129 T02060206 58003
KSTJ 180753Z AUTO 00000KT 10SM CLR 21/21 A2995 RMK AO2 SLP131 T02110206
KSTJ 180653Z AUTO 00000KT 10SM CLR 21/21 A2995 RMK AO2 SLP132 T02110206
KSTJ 180553Z AUTO 14003KT 10SM CLR 23/22 A2995 RMK AO2 SLP132 T02330217 10294 20222 403390183 51002
KSTJ 180453Z AUTO 18003KT 10SM CLR 23/22 A2995 RMK AO2 SLP132 T02330217
KSTJ 180353Z AUTO 21003KT 10SM CLR 23/22 A2995 RMK AO2 SLP132 T02280217 TSNO
KSTJ 180253Z AUTO 20003KT 10SM CLR 25/22 A2994 RMK AO2 SLP131 T02500222 53013 TSNO
KSTJ 180153Z AUTO 18004KT 10SM CLR 25/22 A2993 RMK AO2 SLP126 T02500217
KSTJ 180053Z AUTO 17006KT 10SM CLR 27/22 A2991 RMK AO2 SLP120 LAST T02670217
KSTJ 172353Z 18005KT 10SM CLR 29/22 A2991 RMK AO2 SLP118 T02940217 10339 20294 55001
KSTJ 172253Z 18007KT 10SM CLR 32/21 A2990 RMK AO2 SLP117 T03220211
KSTJ 172153Z 19009KT 10SM SCT060 33/21 A2990 RMK AO2 SLP117 T03330211
KSTJ 172053Z 18010KT 10SM SCT060 33/21 A2991 RMK AO2 SLP120 T03280211 56016
KSTJ 171953Z 19006G15KT 10SM FEW090 33/21 A2992 RMK AO2 SLP122 T03330211
KSTJ 171853Z 20005KT 10SM CLR 33/21 A2994 RMK AO2 SLP130 T03280211
KSTJ 171753Z 19007KT 10SM CLR 32/21 A2996 RMK AO2 SLP136 T03170211 10322 20206 58009
KSTJ 171653Z 19009KT 10SM FEW060 31/19 A2998 RMK AO2 SLP142 T03110194
KSTJ 171553Z 16003KT 10SM SCT065 28/21 A2999 RMK AO2 SLP146 T02780206
KSTJ 171453Z 19006KT 10SM SCT060 26/21 A2998 RMK AO2 SLP146 T02610206 51006
KSTJ 171353Z AUTO 00000KT 10SM BKN060 BKN075 23/20 A2998 RMK AO2 SLP145 T02330200
KSTJ 171253Z AUTO 00000KT 10SM FEW060 BKN095 22/21 A2998 RMK AO2 SLP145 T02170206
KSTJ 171153Z AUTO 00000KT 10SM BKN065 OVC090 21/20 A2996 RMK AO2 SLP138 T02060200 10206 20183 53000
KSTJ 171053Z AUTO 00000KT 10SM BKN090 19/19 A2996 RMK AO2 SLP137 T01940194
KSTJ 170953Z AUTO 00000KT 9SM OVC080 19/19 A2996 RMK AO2 SLP138 T01940194